createdAt,value
2022-10-16T00:00:03.837Z,975.49
2022-10-16T00:01:08.855Z,975.49
2022-10-16T00:02:03.361Z,975.40
2022-10-16T00:03:03.212Z,975.40
2022-10-16T00:04:03.196Z,975.58
2022-10-16T00:05:03.198Z,975.46
2022-10-16T00:06:03.193Z,975.52
2022-10-16T00:07:08.008Z,975.43
2022-10-16T00:08:03.226Z,975.38
2022-10-16T00:09:03.202Z,975.40
2022-10-16T00:10:03.545Z,975.41
2022-10-16T00:11:08.279Z,975.43
2022-10-16T00:12:03.269Z,975.35
2022-10-16T00:13:03.422Z,975.38
2022-10-16T00:14:03.487Z,975.43
2022-10-16T00:16:08.856Z,975.35
2022-10-16T00:17:03.787Z,975.41
2022-10-16T00:18:03.935Z,975.46
2022-10-16T00:19:03.196Z,975.38
2022-10-16T00:20:03.191Z,975.49
2022-10-16T00:21:08.704Z,975.47
2022-10-16T00:22:03.628Z,975.47
2022-10-16T00:23:08.813Z,975.49
2022-10-16T00:24:08.864Z,975.55
2022-10-16T00:25:08.983Z,975.50
2022-10-16T00:26:03.890Z,975.50
2022-10-16T00:27:03.213Z,975.64
2022-10-16T00:28:08.171Z,975.55
2022-10-16T00:29:03.317Z,975.55
2022-10-16T00:30:03.228Z,975.53
2022-10-16T00:32:03.250Z,975.44
2022-10-16T00:33:03.486Z,975.61
2022-10-16T00:34:08.372Z,975.44
2022-10-16T00:35:03.489Z,975.50
2022-10-16T00:36:03.654Z,975.47
2022-10-16T00:37:08.729Z,975.62
2022-10-16T00:38:03.667Z,975.47
2022-10-16T00:39:03.768Z,975.56
2022-10-16T00:40:03.680Z,975.45
2022-10-16T00:42:03.720Z,975.53
2022-10-16T00:43:03.926Z,975.42
2022-10-16T00:44:03.981Z,975.39
2022-10-16T00:45:03.212Z,975.51
2022-10-16T00:46:03.210Z,975.51
2022-10-16T00:47:13.226Z,975.42
2022-10-16T00:48:08.290Z,975.39
2022-10-16T00:49:03.244Z,975.45
2022-10-16T00:50:03.481Z,975.36
2022-10-16T00:51:08.561Z,975.39
2022-10-16T00:52:08.502Z,975.37
2022-10-16T00:53:08.585Z,975.51
2022-10-16T00:54:03.576Z,975.39
2022-10-16T00:55:03.631Z,975.48
2022-10-16T00:56:08.731Z,975.60
2022-10-16T00:57:03.900Z,975.63
2022-10-16T00:58:03.837Z,975.57
2022-10-16T00:59:03.911Z,975.48
2022-10-16T01:00:08.910Z,975.54
2022-10-16T01:01:13.273Z,975.57
2022-10-16T01:02:03.225Z,975.46
2022-10-16T01:03:08.281Z,975.57
2022-10-16T01:04:03.297Z,975.54
2022-10-16T01:05:03.236Z,975.60
2022-10-16T01:06:03.268Z,975.57
2022-10-16T01:07:08.354Z,975.63
2022-10-16T01:08:05.599Z,975.63
2022-10-16T01:09:03.561Z,975.60
2022-10-16T01:10:03.527Z,975.66
2022-10-16T01:11:08.578Z,975.77
2022-10-16T01:12:08.626Z,975.77
2022-10-16T01:13:08.781Z,975.80
2022-10-16T01:14:03.268Z,975.89
2022-10-16T01:15:03.261Z,975.84
2022-10-16T01:16:03.233Z,975.75
2022-10-16T01:17:03.426Z,975.72
2022-10-16T01:18:03.460Z,975.69
2022-10-16T01:19:03.375Z,975.69
2022-10-16T01:20:03.473Z,975.69
2022-10-16T01:21:08.689Z,975.66
2022-10-16T01:22:08.758Z,975.75
2022-10-16T01:23:03.761Z,975.72
2022-10-16T01:24:03.784Z,975.61
2022-10-16T01:25:03.949Z,975.66
2022-10-16T01:26:03.266Z,975.69
2022-10-16T01:27:03.264Z,975.64
2022-10-16T01:28:08.125Z,975.69
2022-10-16T01:29:03.353Z,975.70
2022-10-16T01:30:03.238Z,975.64
2022-10-16T01:31:03.269Z,975.75
2022-10-16T01:33:08.310Z,975.61
2022-10-16T01:34:03.320Z,975.70
2022-10-16T01:35:03.446Z,975.78
2022-10-16T01:36:03.361Z,975.78
2022-10-16T01:37:03.596Z,975.73
2022-10-16T01:38:03.805Z,975.73
2022-10-16T01:39:08.801Z,975.67
2022-10-16T01:41:03.835Z,975.50
2022-10-16T01:42:03.268Z,975.61
2022-10-16T01:43:03.921Z,975.64
2022-10-16T01:44:03.260Z,975.58
2022-10-16T01:45:03.251Z,975.67
2022-10-16T01:46:03.266Z,975.61
2022-10-16T01:47:03.348Z,975.73
2022-10-16T01:49:08.452Z,975.67
2022-10-16T01:50:03.342Z,975.70
2022-10-16T01:51:03.397Z,975.73
2022-10-16T01:52:03.397Z,975.61
2022-10-16T01:53:09.262Z,975.67
2022-10-16T01:54:03.406Z,975.55
2022-10-16T01:55:03.440Z,975.53
2022-10-16T01:56:03.535Z,975.61
2022-10-16T01:57:03.697Z,975.67
2022-10-16T01:58:03.805Z,975.67
2022-10-16T01:59:03.799Z,975.58
2022-10-16T02:00:03.893Z,975.55
2022-10-16T02:01:08.507Z,975.64
2022-10-16T02:02:03.288Z,975.70
2022-10-16T02:03:03.320Z,975.70
2022-10-16T02:04:03.311Z,975.67
2022-10-16T02:05:08.834Z,975.73
2022-10-16T02:06:03.883Z,975.73
2022-10-16T02:07:03.913Z,975.70
2022-10-16T02:08:10.897Z,975.67
2022-10-16T02:09:03.311Z,975.70
2022-10-16T02:10:03.294Z,975.67
2022-10-16T02:11:03.313Z,975.75
2022-10-16T02:12:08.149Z,975.73
2022-10-16T02:13:03.361Z,975.78
2022-10-16T02:14:03.289Z,975.70
2022-10-16T02:15:03.327Z,975.78
2022-10-16T02:16:08.515Z,975.70
2022-10-16T02:17:03.669Z,975.90
2022-10-16T02:18:03.779Z,976.01
2022-10-16T02:19:08.870Z,975.81
2022-10-16T02:20:03.950Z,975.96
2022-10-16T02:21:03.727Z,975.93
2022-10-16T02:22:03.779Z,976.04
2022-10-16T02:23:03.911Z,976.04
2022-10-16T02:24:08.991Z,975.98
2022-10-16T02:25:03.926Z,976.04
2022-10-16T02:26:03.320Z,975.98
2022-10-16T02:27:03.307Z,975.81
2022-10-16T02:28:03.356Z,975.90
2022-10-16T02:29:08.193Z,975.84
2022-10-16T02:30:03.303Z,975.96
2022-10-16T02:31:03.303Z,975.95
2022-10-16T02:32:03.327Z,975.78
2022-10-16T02:34:03.309Z,975.99
2022-10-16T02:35:08.423Z,976.04
2022-10-16T02:36:03.528Z,975.96
2022-10-16T02:37:08.582Z,976.04
2022-10-16T02:38:03.743Z,976.04
2022-10-16T02:39:13.667Z,976.05
2022-10-16T02:40:08.749Z,976.28
2022-10-16T02:41:03.838Z,976.16
2022-10-16T02:42:03.750Z,976.13
2022-10-16T02:43:03.368Z,976.05
2022-10-16T02:44:08.359Z,975.99
2022-10-16T02:45:03.314Z,976.05
2022-10-16T02:46:03.326Z,976.02
2022-10-16T02:47:03.412Z,976.11
2022-10-16T02:48:03.377Z,976.11
2022-10-16T02:49:03.327Z,976.17
2022-10-16T02:50:03.355Z,975.99
2022-10-16T02:51:03.351Z,976.08
2022-10-16T02:52:03.379Z,976.20
2022-10-16T02:53:03.424Z,975.99
2022-10-16T02:54:03.347Z,976.20
2022-10-16T02:55:08.339Z,976.11
2022-10-16T02:56:03.331Z,976.17
2022-10-16T02:57:03.392Z,976.08
2022-10-16T02:58:03.438Z,976.08
2022-10-16T02:59:08.533Z,976.17
2022-10-16T03:00:08.445Z,976.03
2022-10-16T03:01:03.681Z,976.14
2022-10-16T03:02:08.726Z,976.11
2022-10-16T03:03:03.635Z,976.09
2022-10-16T03:04:03.640Z,976.09
2022-10-16T03:05:03.682Z,976.06
2022-10-16T03:06:03.629Z,976.14
2022-10-16T03:07:13.773Z,976.17
2022-10-16T03:08:05.738Z,975.92
2022-10-16T03:09:03.692Z,976.03
2022-10-16T03:12:08.846Z,975.94
2022-10-16T03:13:03.887Z,975.83
2022-10-16T03:14:03.351Z,975.94
2022-10-16T03:15:03.786Z,976.00
2022-10-16T03:16:03.804Z,975.86
2022-10-16T03:17:13.518Z,975.95
2022-10-16T03:18:03.388Z,975.92
2022-10-16T03:19:03.546Z,975.92
2022-10-16T03:20:03.528Z,975.97
2022-10-16T03:21:03.495Z,975.89
2022-10-16T03:22:08.572Z,975.80
2022-10-16T03:23:03.689Z,975.92
2022-10-16T03:24:03.802Z,975.92
2022-10-16T03:25:03.927Z,975.92
2022-10-16T03:26:08.999Z,975.95
2022-10-16T03:27:08.003Z,975.80
2022-10-16T03:28:03.924Z,975.98
2022-10-16T03:29:08.527Z,976.01
2022-10-16T03:30:08.232Z,975.89
2022-10-16T03:31:08.369Z,976.01
2022-10-16T03:32:03.509Z,976.01
2022-10-16T03:33:03.662Z,976.03
2022-10-16T03:34:03.740Z,976.01
2022-10-16T03:35:03.838Z,976.01
2022-10-16T03:36:03.928Z,976.09
2022-10-16T03:37:03.787Z,976.06
2022-10-16T03:38:03.962Z,975.86
2022-10-16T03:39:07.967Z,975.95
2022-10-16T03:40:03.367Z,975.98
2022-10-16T03:41:03.366Z,976.04
2022-10-16T03:42:03.339Z,975.78
2022-10-16T03:43:03.560Z,976.01
2022-10-16T03:44:03.363Z,975.81
2022-10-16T03:45:03.417Z,975.92
2022-10-16T03:46:03.480Z,975.87
2022-10-16T03:47:03.729Z,975.89
2022-10-16T03:48:03.824Z,975.95
2022-10-16T03:50:03.399Z,975.90
2022-10-16T03:51:03.391Z,976.04
2022-10-16T03:52:03.389Z,975.90
2022-10-16T03:53:03.449Z,975.78
2022-10-16T03:54:03.415Z,975.90
2022-10-16T03:55:08.454Z,975.84
2022-10-16T03:56:08.460Z,976.01
2022-10-16T03:57:03.411Z,975.96
2022-10-16T03:58:03.434Z,975.87
2022-10-16T03:59:03.386Z,975.93
2022-10-16T04:00:03.374Z,976.04
2022-10-16T04:01:03.493Z,975.84
2022-10-16T04:02:03.439Z,975.96
2022-10-16T04:04:03.542Z,975.90
2022-10-16T04:05:03.594Z,975.99
2022-10-16T04:06:03.676Z,975.96
2022-10-16T04:07:08.896Z,976.05
2022-10-16T04:08:04.091Z,976.02
2022-10-16T04:09:03.421Z,975.96
2022-10-16T04:10:03.392Z,976.11
2022-10-16T04:11:03.400Z,976.16
2022-10-16T04:12:03.411Z,976.19
2022-10-16T04:13:08.394Z,976.11
2022-10-16T04:14:08.442Z,976.11
2022-10-16T04:15:03.537Z,976.19
2022-10-16T04:16:03.502Z,976.16
2022-10-16T04:17:03.644Z,976.11
2022-10-16T04:18:03.662Z,976.05
2022-10-16T04:19:03.680Z,976.02
2022-10-16T04:20:03.790Z,975.96
2022-10-16T04:21:03.674Z,975.96
2022-10-16T04:22:03.669Z,975.88
2022-10-16T04:23:03.859Z,976.05
2022-10-16T04:24:03.711Z,975.93
2022-10-16T04:25:09.104Z,975.93
2022-10-16T04:26:03.443Z,975.93
2022-10-16T04:27:03.420Z,975.82
2022-10-16T04:28:03.453Z,975.90
2022-10-16T04:29:03.699Z,975.99
2022-10-16T04:30:03.424Z,975.90
2022-10-16T04:31:08.492Z,975.96
2022-10-16T04:32:08.593Z,976.07
2022-10-16T04:33:03.720Z,976.04
2022-10-16T04:34:03.684Z,976.10
2022-10-16T04:35:03.853Z,976.10
2022-10-16T04:36:03.790Z,976.07
2022-10-16T04:37:03.455Z,976.13
2022-10-16T04:38:03.498Z,976.30
2022-10-16T04:39:03.439Z,976.18
2022-10-16T04:40:03.429Z,976.27
2022-10-16T04:41:03.453Z,976.24
2022-10-16T04:42:03.429Z,976.24
2022-10-16T04:43:08.156Z,976.30
2022-10-16T04:44:03.449Z,976.36
2022-10-16T04:45:13.522Z,976.44
2022-10-16T04:46:03.445Z,976.36
2022-10-16T04:47:03.654Z,976.47
2022-10-16T04:48:08.786Z,976.44
2022-10-16T04:49:03.757Z,976.53
2022-10-16T04:50:03.734Z,976.53
2022-10-16T04:51:03.819Z,976.50
2022-10-16T04:52:03.833Z,976.38
2022-10-16T04:53:03.870Z,976.41
2022-10-16T04:54:07.964Z,976.47
2022-10-16T04:55:03.457Z,976.52
2022-10-16T04:56:03.445Z,976.38
2022-10-16T04:57:03.452Z,976.35
2022-10-16T04:58:03.501Z,976.38
2022-10-16T04:59:03.511Z,976.58
2022-10-16T05:00:03.511Z,976.50
2022-10-16T05:01:03.514Z,976.44
2022-10-16T05:02:03.501Z,976.61
2022-10-16T05:03:08.915Z,976.47
2022-10-16T05:04:03.635Z,976.64
2022-10-16T05:05:03.649Z,976.55
2022-10-16T05:06:03.465Z,976.58
2022-10-16T05:07:03.476Z,976.58
2022-10-16T05:08:03.545Z,976.52
2022-10-16T05:09:03.487Z,976.66
2022-10-16T05:10:03.657Z,976.74
2022-10-16T05:11:03.614Z,976.58
2022-10-16T05:12:03.686Z,976.66
2022-10-16T05:13:08.808Z,976.66
2022-10-16T05:14:03.951Z,976.77
2022-10-16T05:15:03.771Z,976.72
2022-10-16T05:16:03.854Z,976.58
2022-10-16T05:17:03.900Z,976.69
2022-10-16T05:18:08.923Z,976.72
2022-10-16T05:19:28.459Z,976.55
2022-10-16T05:20:08.079Z,976.69
2022-10-16T05:21:03.517Z,976.66
2022-10-16T05:22:08.514Z,976.66
2022-10-16T05:23:03.681Z,976.58
2022-10-16T05:24:08.259Z,976.77
2022-10-16T05:25:08.319Z,976.69
2022-10-16T05:26:08.447Z,976.72
2022-10-16T05:28:03.544Z,976.60
2022-10-16T05:29:03.706Z,976.66
2022-10-16T05:30:04.286Z,976.66
2022-10-16T05:31:13.537Z,976.57
2022-10-16T05:32:03.480Z,976.60
2022-10-16T05:33:03.563Z,976.63
2022-10-16T05:34:03.522Z,976.49
2022-10-16T05:35:04.199Z,976.52
2022-10-16T05:36:03.497Z,976.57
2022-10-16T05:37:03.608Z,976.55
2022-10-16T05:38:03.822Z,976.69
2022-10-16T05:39:03.936Z,976.88
2022-10-16T05:40:03.529Z,976.74
2022-10-16T05:41:03.549Z,976.88
2022-10-16T05:42:03.504Z,976.74
2022-10-16T05:43:03.531Z,976.72
2022-10-16T05:44:08.336Z,976.74
2022-10-16T05:45:08.548Z,976.85
2022-10-16T05:46:03.625Z,976.85
2022-10-16T05:47:08.553Z,976.63
2022-10-16T05:48:03.543Z,976.82
2022-10-16T05:49:03.541Z,976.85
2022-10-16T05:50:08.545Z,977.02
2022-10-16T05:51:03.508Z,977.08
2022-10-16T05:52:03.620Z,977.02
2022-10-16T05:53:03.883Z,976.88
2022-10-16T05:54:08.814Z,977.11
2022-10-16T05:55:03.917Z,977.08
2022-10-16T05:56:08.549Z,977.11
2022-10-16T05:57:03.532Z,977.05
2022-10-16T05:58:08.540Z,977.11
2022-10-16T05:59:03.541Z,977.14
2022-10-16T06:00:03.557Z,977.11
2022-10-16T06:01:03.631Z,977.22
2022-10-16T06:02:03.537Z,977.25
2022-10-16T06:03:08.569Z,977.22
2022-10-16T06:04:03.705Z,977.28
2022-10-16T06:05:08.555Z,977.22
2022-10-16T06:06:11.381Z,977.28
2022-10-16T06:07:03.576Z,977.14
2022-10-16T06:08:08.324Z,977.14
2022-10-16T06:10:03.539Z,977.14
2022-10-16T06:11:03.658Z,977.22
2022-10-16T06:12:03.826Z,977.22
2022-10-16T06:13:03.567Z,977.28
2022-10-16T06:14:03.514Z,977.28
2022-10-16T06:16:03.756Z,977.46
2022-10-16T06:17:03.799Z,977.51
2022-10-16T06:18:03.915Z,977.54
2022-10-16T06:19:03.557Z,977.43
2022-10-16T06:20:03.556Z,977.48
2022-10-16T06:21:03.574Z,977.48
2022-10-16T06:22:03.531Z,977.57
2022-10-16T06:23:08.371Z,977.48
2022-10-16T06:24:03.543Z,977.48
2022-10-16T06:25:03.538Z,977.40
2022-10-16T06:26:03.569Z,977.51
2022-10-16T06:27:08.583Z,977.43
2022-10-16T06:28:03.624Z,977.45
2022-10-16T06:29:03.791Z,977.48
2022-10-16T06:31:08.291Z,977.48
2022-10-16T06:32:03.789Z,977.45
2022-10-16T06:33:03.762Z,977.60
2022-10-16T06:34:03.744Z,977.60
2022-10-16T06:35:03.751Z,977.45
2022-10-16T06:36:08.936Z,977.48
2022-10-16T06:37:10.021Z,977.60
2022-10-16T06:38:03.948Z,977.60
2022-10-16T06:39:03.688Z,977.62
2022-10-16T06:40:03.554Z,977.57
2022-10-16T06:41:03.542Z,977.56
2022-10-16T06:42:03.604Z,977.56
2022-10-16T06:43:03.578Z,977.59
2022-10-16T06:45:03.600Z,977.62
2022-10-16T06:46:08.364Z,977.70
2022-10-16T06:47:03.571Z,977.75
2022-10-16T06:48:03.615Z,977.70
2022-10-16T06:49:03.706Z,977.75
2022-10-16T06:50:03.577Z,977.78
2022-10-16T06:52:03.720Z,977.72
2022-10-16T06:53:04.360Z,977.75
2022-10-16T06:54:04.808Z,977.75
2022-10-16T06:55:03.988Z,977.69
2022-10-16T06:56:03.611Z,977.72
2022-10-16T06:57:03.602Z,977.66
2022-10-16T06:58:03.634Z,977.75
2022-10-16T06:59:03.661Z,977.72
2022-10-16T07:00:03.578Z,977.55
2022-10-16T07:01:03.606Z,977.55
2022-10-16T07:02:03.581Z,977.55
2022-10-16T07:03:03.599Z,977.74
2022-10-16T07:04:03.644Z,977.61
2022-10-16T07:05:03.731Z,977.74
2022-10-16T07:06:03.702Z,977.77
2022-10-16T07:07:09.499Z,977.58
2022-10-16T07:08:03.602Z,977.66
2022-10-16T07:09:08.639Z,977.61
2022-10-16T07:10:03.637Z,977.61
2022-10-16T07:11:08.137Z,977.55
2022-10-16T07:12:03.647Z,977.46
2022-10-16T07:13:03.623Z,977.57
2022-10-16T07:14:03.621Z,977.57
2022-10-16T07:15:08.567Z,977.68
2022-10-16T07:16:03.644Z,977.74
2022-10-16T07:17:03.746Z,977.85
2022-10-16T07:18:03.877Z,977.73
2022-10-16T07:19:03.702Z,977.76
2022-10-16T07:20:03.630Z,977.82
2022-10-16T07:21:03.633Z,977.73
2022-10-16T07:22:03.622Z,977.79
2022-10-16T07:23:08.671Z,977.85
2022-10-16T07:24:03.703Z,977.79
2022-10-16T07:25:03.607Z,977.99
2022-10-16T07:26:03.591Z,977.93
2022-10-16T07:27:03.630Z,978.02
2022-10-16T07:29:04.014Z,977.99
2022-10-16T07:30:08.381Z,977.93
2022-10-16T07:31:03.905Z,977.90
2022-10-16T07:32:08.899Z,978.02
2022-10-16T07:33:03.627Z,977.96
2022-10-16T07:34:03.675Z,978.07
2022-10-16T07:35:03.653Z,978.19
2022-10-16T07:36:03.659Z,978.13
2022-10-16T07:37:03.663Z,977.93
2022-10-16T07:38:08.288Z,978.07
2022-10-16T07:39:03.684Z,977.98
2022-10-16T07:40:08.634Z,978.01
2022-10-16T07:41:03.639Z,977.98
2022-10-16T07:42:03.629Z,978.04
2022-10-16T07:43:03.629Z,977.98
2022-10-16T07:44:03.689Z,977.98
2022-10-16T07:45:03.612Z,977.89
2022-10-16T07:46:06.862Z,977.95
2022-10-16T07:47:03.759Z,978.07
2022-10-16T07:48:03.912Z,978.01
2022-10-16T07:49:03.673Z,978.15
2022-10-16T07:50:03.664Z,978.06
2022-10-16T07:51:03.715Z,978.00
2022-10-16T07:52:08.214Z,977.97
2022-10-16T07:53:03.686Z,977.92
2022-10-16T07:54:08.739Z,977.97
2022-10-16T07:55:03.643Z,977.94
2022-10-16T07:57:08.403Z,977.86
2022-10-16T07:58:03.628Z,977.82
2022-10-16T07:59:03.659Z,977.97
2022-10-16T08:00:08.681Z,977.85
2022-10-16T08:01:08.744Z,977.97
2022-10-16T08:02:03.641Z,977.85
2022-10-16T08:03:03.655Z,977.90
2022-10-16T08:04:08.725Z,977.85
2022-10-16T08:05:03.656Z,977.93
2022-10-16T08:06:08.849Z,977.93
2022-10-16T08:07:03.765Z,977.90
2022-10-16T08:08:03.751Z,977.92
2022-10-16T08:10:03.681Z,977.95
2022-10-16T08:11:08.929Z,977.86
2022-10-16T08:12:08.049Z,977.80
2022-10-16T08:13:03.776Z,977.92
2022-10-16T08:14:03.681Z,977.92
2022-10-16T08:15:03.708Z,978.03
2022-10-16T08:16:03.636Z,978.09
2022-10-16T08:19:03.818Z,978.06
2022-10-16T08:20:03.835Z,978.09
2022-10-16T08:21:03.856Z,977.95
2022-10-16T08:22:04.285Z,978.03
2022-10-16T08:23:03.909Z,978.15
2022-10-16T08:24:03.696Z,978.23
2022-10-16T08:25:03.656Z,978.15
2022-10-16T08:26:03.674Z,978.32
2022-10-16T08:27:03.664Z,978.20
2022-10-16T08:28:13.701Z,978.18
2022-10-16T08:29:03.865Z,978.23
2022-10-16T08:30:03.658Z,978.32
2022-10-16T08:31:03.732Z,978.35
2022-10-16T08:32:03.676Z,978.41
2022-10-16T08:33:03.697Z,978.43
2022-10-16T08:34:08.766Z,978.35
2022-10-16T08:35:03.760Z,978.35
2022-10-16T08:36:03.817Z,978.35
2022-10-16T08:37:03.761Z,978.29
2022-10-16T08:38:03.805Z,978.23
2022-10-16T08:39:03.951Z,978.45
2022-10-16T08:40:13.216Z,978.37
2022-10-16T08:41:03.701Z,978.40
2022-10-16T08:42:03.719Z,978.31
2022-10-16T08:43:03.709Z,978.34
2022-10-16T08:44:03.718Z,978.42
2022-10-16T08:45:08.695Z,978.47
2022-10-16T08:46:03.731Z,978.33
2022-10-16T08:47:08.431Z,978.44
2022-10-16T08:48:03.710Z,978.55
2022-10-16T08:50:03.766Z,978.55
2022-10-16T08:51:03.769Z,978.55
2022-10-16T08:52:03.721Z,978.58
2022-10-16T08:53:03.714Z,978.46
2022-10-16T08:54:03.757Z,978.60
2022-10-16T08:55:03.721Z,978.58
2022-10-16T08:56:03.741Z,978.58
2022-10-16T08:57:03.729Z,978.57
2022-10-16T08:58:03.720Z,978.63
2022-10-16T08:59:03.800Z,978.57
2022-10-16T09:00:03.769Z,978.69
2022-10-16T09:01:03.939Z,978.78
2022-10-16T09:02:03.752Z,978.83
2022-10-16T09:03:03.719Z,978.86
2022-10-16T09:04:03.768Z,978.89
2022-10-16T09:05:03.691Z,978.77
2022-10-16T09:06:03.718Z,978.75
2022-10-16T09:07:03.765Z,978.95
2022-10-16T09:08:07.926Z,979.01
2022-10-16T09:09:03.829Z,979.03
2022-10-16T09:10:03.777Z,979.12
2022-10-16T09:11:03.739Z,979.09
2022-10-16T09:12:03.766Z,979.06
2022-10-16T09:13:03.889Z,979.15
2022-10-16T09:14:03.901Z,979.09
2022-10-16T09:15:03.754Z,979.21
2022-10-16T09:16:03.729Z,979.18
2022-10-16T09:17:03.994Z,979.32
2022-10-16T09:18:03.741Z,979.32
2022-10-16T09:19:03.783Z,979.35
2022-10-16T09:20:03.727Z,979.41
2022-10-16T09:21:05.217Z,979.29
2022-10-16T09:22:03.731Z,979.29
2022-10-16T09:23:03.760Z,979.29
2022-10-16T09:24:03.766Z,979.38
2022-10-16T09:25:03.772Z,979.23
2022-10-16T09:26:03.725Z,979.34
2022-10-16T09:27:03.747Z,979.29
2022-10-16T09:28:03.717Z,979.40
2022-10-16T09:29:03.988Z,979.34
2022-10-16T09:30:03.886Z,979.25
2022-10-16T09:31:03.924Z,979.40
2022-10-16T09:32:03.863Z,979.34
2022-10-16T09:33:03.749Z,979.42
2022-10-16T09:34:03.850Z,979.39
2022-10-16T09:35:03.747Z,979.25
2022-10-16T09:36:03.750Z,979.33
2022-10-16T09:37:03.746Z,979.42
2022-10-16T09:38:03.781Z,979.45
2022-10-16T09:39:03.785Z,979.27
2022-10-16T09:40:07.876Z,979.36
2022-10-16T09:41:04.077Z,979.36
2022-10-16T09:42:03.763Z,979.44
2022-10-16T09:43:03.778Z,979.30
2022-10-16T09:44:03.819Z,979.36
2022-10-16T09:45:03.805Z,979.30
2022-10-16T09:46:03.780Z,979.38
2022-10-16T09:47:03.759Z,979.47
2022-10-16T09:48:03.749Z,979.47
2022-10-16T09:49:03.819Z,979.41
2022-10-16T09:50:03.757Z,979.44
2022-10-16T09:51:03.783Z,979.44
2022-10-16T09:52:03.882Z,979.52
2022-10-16T09:53:03.995Z,979.49
2022-10-16T09:54:03.901Z,979.46
2022-10-16T09:55:03.808Z,979.49
2022-10-16T09:56:03.793Z,979.43
2022-10-16T09:57:03.781Z,979.31
2022-10-16T09:58:03.803Z,979.37
2022-10-16T09:59:03.842Z,979.46
2022-10-16T10:00:03.799Z,979.46
2022-10-16T10:01:03.773Z,979.54
2022-10-16T10:02:03.780Z,979.63
2022-10-16T10:03:03.814Z,979.51
2022-10-16T10:04:03.866Z,979.57
2022-10-16T10:05:03.787Z,979.63
2022-10-16T10:06:03.777Z,979.54
2022-10-16T10:07:03.787Z,979.63
2022-10-16T10:08:03.808Z,979.54
2022-10-16T10:09:03.984Z,979.63
2022-10-16T10:10:03.807Z,979.60
2022-10-16T10:11:03.816Z,979.60
2022-10-16T10:13:03.798Z,979.65
2022-10-16T10:14:03.926Z,979.65
2022-10-16T10:15:03.832Z,979.45
2022-10-16T10:16:03.799Z,979.59
2022-10-16T10:17:03.822Z,979.56
2022-10-16T10:18:03.821Z,979.65
2022-10-16T10:19:03.903Z,979.56
2022-10-16T10:20:03.848Z,979.73
2022-10-16T10:22:03.805Z,979.73
2022-10-16T10:23:03.777Z,979.64
2022-10-16T10:24:03.896Z,979.61
2022-10-16T10:25:03.784Z,979.60
2022-10-16T10:26:03.786Z,979.57
2022-10-16T10:27:03.862Z,979.60
2022-10-16T10:28:03.846Z,979.60
2022-10-16T10:29:03.999Z,979.60
2022-10-16T10:30:03.932Z,979.68
2022-10-16T10:31:03.799Z,979.68
2022-10-16T10:32:03.928Z,979.70
2022-10-16T10:33:04.003Z,979.70
2022-10-16T10:34:04.061Z,979.76
2022-10-16T10:35:03.828Z,979.78
2022-10-16T10:36:03.831Z,979.69
2022-10-16T10:37:03.846Z,979.72
2022-10-16T10:38:03.819Z,979.75
2022-10-16T10:39:03.905Z,979.81
2022-10-16T10:40:03.840Z,979.75
2022-10-16T10:41:03.854Z,979.94
2022-10-16T10:42:03.824Z,979.91
2022-10-16T10:43:03.828Z,979.97
2022-10-16T10:44:03.975Z,979.84
2022-10-16T10:45:03.854Z,979.72
2022-10-16T10:46:03.847Z,979.92
2022-10-16T10:47:03.804Z,979.86
2022-10-16T10:48:03.810Z,979.92
2022-10-16T10:49:03.874Z,979.89
2022-10-16T10:50:03.811Z,979.81
2022-10-16T10:51:03.835Z,979.92
2022-10-16T10:52:03.876Z,979.95
2022-10-16T10:53:03.888Z,979.95
2022-10-16T10:54:04.079Z,979.92
2022-10-16T10:55:03.862Z,979.89
2022-10-16T10:56:03.851Z,979.97
2022-10-16T10:57:03.853Z,980.09
2022-10-16T10:58:03.866Z,979.97
2022-10-16T10:59:03.891Z,979.89
2022-10-16T11:00:03.872Z,980.06
2022-10-16T11:01:03.872Z,980.12
2022-10-16T11:02:19.156Z,980.00
2022-10-16T11:03:03.856Z,979.89
2022-10-16T11:04:03.905Z,980.26
2022-10-16T11:05:03.854Z,980.03
2022-10-16T11:06:03.825Z,980.12
2022-10-16T11:07:03.819Z,980.15
2022-10-16T11:08:03.844Z,980.10
2022-10-16T11:09:03.881Z,980.15
2022-10-16T11:10:03.835Z,980.07
2022-10-16T11:11:03.822Z,980.04
2022-10-16T11:12:03.853Z,979.92
2022-10-16T11:13:03.832Z,980.23
2022-10-16T11:14:03.921Z,980.04
2022-10-16T11:15:03.874Z,980.16
2022-10-16T11:16:03.841Z,980.04
2022-10-16T11:17:03.846Z,980.10
2022-10-16T11:18:03.935Z,980.16
2022-10-16T11:19:03.984Z,980.07
2022-10-16T11:20:03.968Z,980.16
2022-10-16T11:21:03.915Z,980.08
2022-10-16T11:22:03.924Z,979.99
2022-10-16T11:23:03.904Z,980.11
2022-10-16T11:24:03.936Z,980.17
2022-10-16T11:25:03.916Z,980.14
2022-10-16T11:26:03.907Z,980.17
2022-10-16T11:27:03.881Z,980.22
2022-10-16T11:28:03.897Z,980.34
2022-10-16T11:29:04.136Z,980.09
2022-10-16T11:30:03.880Z,980.06
2022-10-16T11:31:03.868Z,980.06
2022-10-16T11:32:03.868Z,980.06
2022-10-16T11:33:03.867Z,980.03
2022-10-16T11:34:03.991Z,980.00
2022-10-16T11:35:03.913Z,979.97
2022-10-16T11:36:03.887Z,980.03
2022-10-16T11:37:03.900Z,980.03
2022-10-16T11:38:03.940Z,980.09
2022-10-16T11:39:03.917Z,979.97
2022-10-16T11:40:03.903Z,979.97
2022-10-16T11:41:03.895Z,980.15
2022-10-16T11:42:03.878Z,980.12
2022-10-16T11:43:03.970Z,980.03
2022-10-16T11:44:03.899Z,979.88
2022-10-16T11:45:03.858Z,979.91
2022-10-16T11:46:09.276Z,980.06
2022-10-16T11:47:47.072Z,979.91
2022-10-16T11:48:04.477Z,980.00
2022-10-16T11:49:03.938Z,980.08
2022-10-16T11:50:03.906Z,979.83
2022-10-16T11:51:03.897Z,979.91
2022-10-16T11:52:04.015Z,979.94
2022-10-16T11:53:03.864Z,979.96
2022-10-16T11:54:03.915Z,979.93
2022-10-16T11:55:03.884Z,979.93
2022-10-16T11:56:03.858Z,979.93
2022-10-16T11:57:03.907Z,979.96
2022-10-16T11:58:03.937Z,979.96
2022-10-16T11:59:03.927Z,980.05
2022-10-16T12:00:03.940Z,979.99
2022-10-16T12:01:03.932Z,980.02
2022-10-16T12:02:03.927Z,980.02
2022-10-16T12:03:03.928Z,980.05
2022-10-16T12:04:04.116Z,980.08
2022-10-16T12:05:03.923Z,980.07
2022-10-16T12:06:03.948Z,980.16
2022-10-16T12:07:03.919Z,980.02
2022-10-16T12:08:03.921Z,980.05
2022-10-16T12:09:03.957Z,980.04
2022-10-16T12:10:03.940Z,979.96
2022-10-16T12:11:03.924Z,980.01
2022-10-16T12:12:03.914Z,979.99
2022-10-16T12:13:03.912Z,980.13
2022-10-16T12:14:03.955Z,980.04
2022-10-16T12:15:22.415Z,980.10
2022-10-16T12:16:03.938Z,980.04
2022-10-16T12:17:03.902Z,979.98
2022-10-16T12:18:03.889Z,980.07
2022-10-16T12:19:03.925Z,980.16
2022-10-16T12:20:03.896Z,980.24
2022-10-16T12:21:03.946Z,980.04
2022-10-16T12:22:03.919Z,980.13
2022-10-16T12:23:03.905Z,980.16
2022-10-16T12:24:03.956Z,980.07
2022-10-16T12:25:03.922Z,980.13
2022-10-16T12:26:03.926Z,980.10
2022-10-16T12:27:03.961Z,980.23
2022-10-16T12:28:03.965Z,980.23
2022-10-16T12:29:04.315Z,980.26
2022-10-16T12:30:03.940Z,980.29
2022-10-16T12:31:03.937Z,980.26
2022-10-16T12:32:03.999Z,980.35
2022-10-16T12:33:03.962Z,980.41
2022-10-16T12:34:03.951Z,980.23
2022-10-16T12:35:03.945Z,980.29
2022-10-16T12:36:03.929Z,980.29
2022-10-16T12:37:03.959Z,980.32
2022-10-16T12:38:04.040Z,980.47
2022-10-16T12:39:03.955Z,980.35
2022-10-16T12:40:03.959Z,980.29
2022-10-16T12:41:03.978Z,980.21
2022-10-16T12:42:03.943Z,980.27
2022-10-16T12:43:03.927Z,980.24
2022-10-16T12:44:03.999Z,980.21
2022-10-16T12:45:03.967Z,980.35
2022-10-16T12:46:03.923Z,980.35
2022-10-16T12:47:03.950Z,980.32
2022-10-16T12:48:03.953Z,980.32
2022-10-16T12:49:08.371Z,980.16
2022-10-16T12:50:14.085Z,980.29
2022-10-16T12:51:03.961Z,980.26
2022-10-16T12:52:03.958Z,980.38
2022-10-16T12:53:03.990Z,980.37